KPAH/PAH METAR and TAF weather

Enter ICAO airport designator
Station Type Date Time Source
KPAH METAR 2018/12/12 11:53 UTC NOAA

KPAH 121153Z 21008KT 10SM CLR 06/M02 A3002 RMK AO2 SLP166 T00561022 10061 20044 55010


Station Type Date Time Source
KPAH Decoded METAR 2018/12/12 11:53 UTC NOAA

BARKLEY REGIONAL AIRPORT, KY, United States (KPAH) 37-03N 088-46W 118M
Dec 12, 2018 - 06:53 AM EST / 2018.12.12 1153 UTC
Wind: from the SSW (210 degrees) at 9 MPH (8 KT):0
Visibility: 10 mile(s):0
Sky conditions: clear
Temperature: 42.1 F (5.6 C)
Dew Point: 28.0 F (-2.2 C)
Relative Humidity: 57%
Pressure (altimeter): 30.02 in. Hg (1016 hPa)
Pressure tendency: 0.03 inches (1.0 hPa) lower than three hours ago
ob: KPAH 121153Z 21008KT 10SM CLR 06/M02 A3002 RMK AO2 SLP166 T00561022 10061 20044 55010
cycle: 12

Station Type Date Time Source
KPAH TAF 2018/12/12 12:22 UTC NOAA

TAF KPAH 121120Z 1212/1312 21010G17KT P6SM SCT060 BKN120
FM121800 22013G23KT P6SM SCT030 BKN060
FM122300 20008KT P6SM SCT015 BKN030
FM131000 16006KT 3SM -RA BR SCT005 BKN015


Example: see airport list